createdAt,value
2022-09-18T00:00:21.400Z,19.30
2022-09-18T00:02:48.210Z,19.30
2022-09-18T00:05:15.119Z,19.30
2022-09-18T00:07:41.927Z,19.30
2022-09-18T00:10:09.196Z,19.40
2022-09-18T00:12:35.943Z,19.40
2022-09-18T00:15:02.832Z,19.30
2022-09-18T00:17:29.627Z,19.40
2022-09-18T00:19:56.443Z,19.40
2022-09-18T00:22:23.196Z,19.40
2022-09-18T00:24:49.943Z,19.40
2022-09-18T00:27:16.696Z,19.40
2022-09-18T00:29:44.626Z,19.40
2022-09-18T00:32:12.132Z,19.40
2022-09-18T00:34:41.424Z,19.40
2022-09-18T00:37:08.263Z,19.40
2022-09-18T00:39:35.013Z,19.40
2022-09-18T00:42:01.795Z,19.40
2022-09-18T00:44:28.495Z,19.40
2022-09-18T00:46:59.633Z,19.40
2022-09-18T00:49:27.536Z,19.40
2022-09-18T00:51:57.115Z,19.40
2022-09-18T00:54:26.916Z,19.40
2022-09-18T00:56:59.129Z,19.40
2022-09-18T00:59:30.468Z,19.30
2022-09-18T01:01:59.174Z,19.30
2022-09-18T01:04:27.576Z,19.30
2022-09-18T01:07:29.269Z,19.30
2022-09-18T01:10:19.835Z,19.30
2022-09-18T01:13:02.253Z,19.30
2022-09-18T01:16:04.974Z,19.30
2022-09-18T01:18:54.825Z,19.30
2022-09-18T01:21:37.907Z,19.20
2022-09-18T01:24:24.014Z,19.20
2022-09-18T01:27:04.308Z,19.20
2022-09-18T01:29:40.031Z,19.20
2022-09-18T01:32:21.211Z,19.10
2022-09-18T01:35:36.757Z,19.10
2022-09-18T01:38:09.948Z,19.10
2022-09-18T01:40:44.601Z,19.10
2022-09-18T01:43:15.190Z,19.10
2022-09-18T01:45:46.177Z,19.10
2022-09-18T01:48:27.750Z,19.10
2022-09-18T01:51:04.849Z,19.10
2022-09-18T01:53:40.996Z,19.10
2022-09-18T01:56:15.731Z,19.10
2022-09-18T01:58:44.748Z,19.10
2022-09-18T02:01:16.960Z,19.10
2022-09-18T02:03:58.763Z,19.10
2022-09-18T02:06:36.370Z,19.10
2022-09-18T02:09:03.886Z,19.00
2022-09-18T02:11:34.503Z,19.10
2022-09-18T02:14:08.112Z,19.10
2022-09-18T02:17:05.265Z,19.00
2022-09-18T02:19:41.139Z,19.00
2022-09-18T02:22:09.936Z,19.00
2022-09-18T02:24:39.064Z,19.10
2022-09-18T02:27:08.681Z,19.00
2022-09-18T02:29:36.415Z,19.10
2022-09-18T02:32:03.765Z,19.00
2022-09-18T02:34:32.192Z,19.00
2022-09-18T02:37:21.431Z,19.00
2022-09-18T02:39:56.307Z,19.00
2022-09-18T02:42:52.533Z,19.10
2022-09-18T02:45:40.378Z,19.00
2022-09-18T02:48:26.087Z,19.10
2022-09-18T02:51:03.402Z,19.10
2022-09-18T02:54:06.806Z,19.10
2022-09-18T02:56:45.592Z,19.00
2022-09-18T02:59:33.404Z,19.10
2022-09-18T03:02:01.379Z,19.00
2022-09-18T03:04:30.657Z,19.00
2022-09-18T03:07:05.084Z,19.00
2022-09-18T03:09:38.087Z,19.00
2022-09-18T03:12:04.928Z,19.00
2022-09-18T03:14:37.401Z,18.90
2022-09-18T03:17:04.546Z,18.90
2022-09-18T03:19:32.259Z,18.90
2022-09-18T03:22:00.440Z,18.90
2022-09-18T03:24:29.337Z,18.90
2022-09-18T03:26:57.526Z,18.90
2022-09-18T03:29:26.585Z,18.80
2022-09-18T03:31:55.173Z,18.80
2022-09-18T03:34:22.844Z,18.80
2022-09-18T03:36:49.950Z,18.80
2022-09-18T03:39:18.389Z,18.80
2022-09-18T03:41:46.691Z,18.70
2022-09-18T03:44:13.629Z,18.70
2022-09-18T03:46:42.284Z,18.70
2022-09-18T03:49:09.220Z,18.70
2022-09-18T03:51:38.306Z,18.60
2022-09-18T03:54:06.690Z,18.60
2022-09-18T03:56:56.646Z,18.70
2022-09-18T03:59:43.674Z,18.60
2022-09-18T04:02:36.779Z,18.60
2022-09-18T04:05:22.354Z,18.60
2022-09-18T04:08:08.188Z,18.60
2022-09-18T04:11:04.578Z,18.60
2022-09-18T04:13:34.157Z,18.60
2022-09-18T04:16:06.322Z,18.60
2022-09-18T04:18:33.717Z,18.60
2022-09-18T04:21:02.112Z,18.60
2022-09-18T04:23:29.047Z,18.60
2022-09-18T04:25:57.161Z,18.60
2022-09-18T04:28:28.485Z,18.60
2022-09-18T04:30:55.349Z,18.60
2022-09-18T04:33:22.142Z,18.60
2022-09-18T04:35:49.051Z,18.60
2022-09-18T04:38:15.812Z,18.60
2022-09-18T04:40:42.664Z,18.60
2022-09-18T04:43:11.604Z,18.60
2022-09-18T04:45:39.870Z,18.60
2022-09-18T04:48:06.675Z,18.60
2022-09-18T04:50:33.512Z,18.60
2022-09-18T04:53:08.347Z,18.60
2022-09-18T04:55:35.148Z,18.60
2022-09-18T04:58:01.948Z,18.70
2022-09-18T05:00:29.902Z,18.70
2022-09-18T05:02:59.408Z,18.70
2022-09-18T05:05:28.320Z,18.70
2022-09-18T05:08:01.610Z,18.60
2022-09-18T05:10:29.863Z,18.60
2022-09-18T05:12:56.923Z,18.60
2022-09-18T05:15:24.242Z,18.60
2022-09-18T05:18:07.728Z,18.60
2022-09-18T05:20:36.704Z,18.60
2022-09-18T05:23:07.308Z,18.70
2022-09-18T05:25:36.233Z,18.70
2022-09-18T05:28:03.845Z,18.70
2022-09-18T05:30:43.591Z,18.70
2022-09-18T05:33:11.630Z,18.70
2022-09-18T05:35:40.713Z,18.60
2022-09-18T05:38:07.644Z,18.60
2022-09-18T05:40:37.428Z,18.70
2022-09-18T05:43:07.434Z,18.70
2022-09-18T05:45:36.047Z,18.70
2022-09-18T05:48:14.660Z,18.70
2022-09-18T05:50:43.978Z,18.70
2022-09-18T05:53:16.277Z,18.70
2022-09-18T05:56:00.705Z,18.70
2022-09-18T05:58:27.741Z,18.70
2022-09-18T06:01:01.237Z,18.70
2022-09-18T06:03:39.855Z,18.70
2022-09-18T06:06:06.938Z,18.80
2022-09-18T06:08:36.289Z,18.80
2022-09-18T06:11:03.860Z,18.80
2022-09-18T06:13:32.095Z,18.80
2022-09-18T06:15:59.490Z,18.80
2022-09-18T06:18:46.276Z,18.80
2022-09-18T06:21:16.184Z,18.80
2022-09-18T06:23:44.106Z,18.80
2022-09-18T06:26:18.389Z,18.80
2022-09-18T06:28:46.988Z,18.80
2022-09-18T06:31:13.971Z,18.80
2022-09-18T06:33:50.843Z,18.90
2022-09-18T06:36:18.114Z,18.90
2022-09-18T06:39:08.070Z,18.90
2022-09-18T06:41:34.881Z,18.90
2022-09-18T06:44:04.801Z,18.90
2022-09-18T06:46:43.197Z,18.90
2022-09-18T06:49:24.196Z,18.90
2022-09-18T06:51:51.067Z,18.90
2022-09-18T06:54:18.046Z,18.90
2022-09-18T06:56:47.819Z,18.90
2022-09-18T06:59:16.276Z,18.90
2022-09-18T07:01:43.647Z,19.00
2022-09-18T07:04:16.449Z,19.00
2022-09-18T07:06:45.917Z,19.00
2022-09-18T07:09:14.943Z,19.10
2022-09-18T07:11:59.559Z,19.10
2022-09-18T07:14:34.461Z,19.10
2022-09-18T07:17:14.185Z,19.10
2022-09-18T07:19:45.737Z,19.10
2022-09-18T07:22:14.804Z,19.20
2022-09-18T07:24:44.401Z,19.20
2022-09-18T07:27:11.387Z,19.20
2022-09-18T07:29:41.843Z,19.20
2022-09-18T07:32:09.711Z,19.20
2022-09-18T07:34:37.507Z,19.20
2022-09-18T07:37:04.298Z,19.20
2022-09-18T07:39:31.702Z,19.20
2022-09-18T07:42:37.011Z,19.30
2022-09-18T07:45:05.874Z,19.30
2022-09-18T07:47:32.780Z,19.30
2022-09-18T07:50:01.568Z,19.30
2022-09-18T07:52:28.607Z,19.30
2022-09-18T07:54:56.998Z,19.30
2022-09-18T07:57:29.113Z,19.40
2022-09-18T08:00:26.825Z,19.40
2022-09-18T08:03:11.947Z,19.40
2022-09-18T08:05:59.460Z,19.40
2022-09-18T08:08:26.436Z,19.50
2022-09-18T08:11:03.752Z,19.50
2022-09-18T08:13:51.106Z,19.50
2022-09-18T08:16:36.549Z,19.50
2022-09-18T08:19:09.520Z,19.60
2022-09-18T08:21:50.146Z,19.60
2022-09-18T08:24:17.838Z,19.60
2022-09-18T08:26:45.749Z,19.60
2022-09-18T08:29:19.210Z,19.60
2022-09-18T08:32:09.983Z,19.70
2022-09-18T08:34:38.071Z,19.70
2022-09-18T08:37:05.103Z,19.70
2022-09-18T08:39:50.499Z,19.70
2022-09-18T08:42:58.494Z,19.80
2022-09-18T08:45:52.315Z,19.70
2022-09-18T08:48:31.385Z,19.80
2022-09-18T08:51:28.448Z,19.80
2022-09-18T08:54:17.972Z,19.80
2022-09-18T08:57:21.536Z,19.80
2022-09-18T09:00:04.321Z,19.80
2022-09-18T09:02:49.523Z,19.80
2022-09-18T09:05:22.916Z,19.80
2022-09-18T09:08:01.952Z,19.80
2022-09-18T09:10:40.531Z,19.80
2022-09-18T09:13:33.044Z,19.80
2022-09-18T09:16:16.966Z,19.80
2022-09-18T09:19:15.867Z,19.80
2022-09-18T09:21:45.596Z,19.80
2022-09-18T09:24:21.132Z,19.80
2022-09-18T09:27:19.735Z,19.90
2022-09-18T09:30:20.307Z,19.80
2022-09-18T09:33:16.306Z,19.80
2022-09-18T09:36:21.868Z,19.90
2022-09-18T09:39:11.519Z,19.90
2022-09-18T09:42:08.005Z,19.90
2022-09-18T09:44:46.915Z,19.80
2022-09-18T09:47:23.289Z,19.90
2022-09-18T09:50:09.629Z,19.90
2022-09-18T09:52:38.808Z,19.90
2022-09-18T09:55:25.210Z,19.90
2022-09-18T09:58:02.943Z,19.90
2022-09-18T10:00:38.444Z,19.90
2022-09-18T10:03:42.526Z,19.90
2022-09-18T10:06:30.373Z,19.90
2022-09-18T10:09:13.811Z,19.90
2022-09-18T10:11:43.546Z,19.90
2022-09-18T10:14:17.556Z,19.90
2022-09-18T10:16:51.633Z,19.90
2022-09-18T10:19:20.778Z,19.90
2022-09-18T10:21:50.963Z,19.90
2022-09-18T10:24:56.011Z,19.90
2022-09-18T10:27:25.216Z,19.90
2022-09-18T10:29:54.083Z,20.00
2022-09-18T10:32:41.484Z,20.00
2022-09-18T10:35:44.367Z,20.00
2022-09-18T10:38:31.003Z,20.10
2022-09-18T10:41:28.610Z,20.10
2022-09-18T10:43:59.067Z,20.10
2022-09-18T10:46:33.567Z,20.10
2022-09-18T10:49:15.674Z,20.10
2022-09-18T10:51:44.243Z,20.10
2022-09-18T10:54:18.069Z,20.20
2022-09-18T10:57:54.003Z,20.20
2022-09-18T11:00:21.388Z,20.20
2022-09-18T11:02:55.958Z,20.20
2022-09-18T11:05:29.051Z,20.20
2022-09-18T11:07:59.576Z,20.20
2022-09-18T11:10:29.483Z,20.20
2022-09-18T11:12:59.039Z,20.20
2022-09-18T11:15:36.787Z,20.20
2022-09-18T11:18:06.556Z,20.20
2022-09-18T11:20:45.223Z,20.20
2022-09-18T11:23:28.088Z,20.10
2022-09-18T11:26:19.672Z,20.10
2022-09-18T11:29:15.979Z,20.10
2022-09-18T11:31:51.138Z,20.10
2022-09-18T11:34:28.013Z,20.10
2022-09-18T11:37:02.601Z,20.10
2022-09-18T11:39:55.622Z,20.10
2022-09-18T11:42:23.568Z,20.10
2022-09-18T11:44:52.614Z,20.10
2022-09-18T11:47:43.605Z,20.10
2022-09-18T11:50:21.268Z,20.10
2022-09-18T11:52:54.392Z,20.10
2022-09-18T11:55:50.823Z,20.10
2022-09-18T11:58:33.627Z,20.10
2022-09-18T12:01:14.090Z,20.10
2022-09-18T12:04:02.767Z,20.00
2022-09-18T12:06:53.920Z,20.00
2022-09-18T12:09:31.607Z,20.00
2022-09-18T12:12:07.171Z,20.00
2022-09-18T12:14:49.008Z,20.00
2022-09-18T12:17:31.576Z,20.00
2022-09-18T12:20:04.061Z,20.00
2022-09-18T12:22:56.500Z,20.00
2022-09-18T12:25:35.811Z,20.00
2022-09-18T12:28:32.967Z,20.00
2022-09-18T12:31:13.177Z,20.00
2022-09-18T12:34:04.854Z,20.00
2022-09-18T12:36:56.914Z,20.00
2022-09-18T12:39:54.711Z,20.10
2022-09-18T12:42:38.493Z,20.00
2022-09-18T12:45:30.267Z,20.10
2022-09-18T12:47:57.475Z,20.10
2022-09-18T12:50:37.078Z,20.10
2022-09-18T12:53:15.849Z,20.10
2022-09-18T12:55:58.622Z,20.10
2022-09-18T12:58:56.599Z,20.10
2022-09-18T13:01:42.280Z,20.10
2022-09-18T13:04:20.959Z,20.10
2022-09-18T13:07:12.223Z,20.10
2022-09-18T13:09:50.492Z,20.10
2022-09-18T13:12:30.197Z,20.10
2022-09-18T13:15:15.019Z,20.10
2022-09-18T13:17:48.828Z,20.10
2022-09-18T13:20:25.690Z,20.10
2022-09-18T13:22:54.078Z,20.10
2022-09-18T13:25:37.903Z,20.10
2022-09-18T13:28:11.816Z,20.10
2022-09-18T13:30:39.050Z,20.10
2022-09-18T13:33:06.102Z,20.10
2022-09-18T13:35:35.208Z,20.10
2022-09-18T13:38:07.267Z,20.10
2022-09-18T13:40:37.467Z,20.10
2022-09-18T13:44:05.882Z,20.10
2022-09-18T13:46:39.694Z,20.00
2022-09-18T13:49:19.348Z,20.00
2022-09-18T13:51:46.645Z,20.00
2022-09-18T13:54:28.800Z,20.00
2022-09-18T13:57:05.034Z,20.00
2022-09-18T13:59:55.787Z,20.00
2022-09-18T14:02:31.004Z,20.00
2022-09-18T14:05:03.112Z,20.00
2022-09-18T14:07:32.873Z,20.10
2022-09-18T14:10:37.465Z,20.10
2022-09-18T14:13:10.093Z,20.10
2022-09-18T14:15:37.418Z,20.10
2022-09-18T14:18:14.891Z,20.10
2022-09-18T14:20:52.303Z,20.10
2022-09-18T14:23:34.516Z,20.10
2022-09-18T14:26:02.444Z,20.10
2022-09-18T14:28:29.613Z,20.10
2022-09-18T14:31:17.867Z,20.10
2022-09-18T14:33:45.182Z,20.20
2022-09-18T14:36:14.782Z,20.20
2022-09-18T14:38:41.854Z,20.20
2022-09-18T14:41:19.226Z,20.20
2022-09-18T14:44:00.237Z,20.20
2022-09-18T14:46:28.069Z,20.20
2022-09-18T14:48:55.958Z,20.20
2022-09-18T14:51:28.835Z,20.20
2022-09-18T14:53:57.951Z,20.20
2022-09-18T14:56:32.595Z,20.20
2022-09-18T14:59:03.602Z,20.20
2022-09-18T15:01:32.786Z,20.20
2022-09-18T15:04:03.317Z,20.30
2022-09-18T15:06:45.386Z,20.30
2022-09-18T15:09:16.548Z,20.30
2022-09-18T15:12:01.786Z,20.30
2022-09-18T15:14:43.035Z,20.30
2022-09-18T15:17:23.486Z,20.30
2022-09-18T15:20:13.987Z,20.30
2022-09-18T15:22:41.199Z,20.30
2022-09-18T15:25:19.712Z,20.30
2022-09-18T15:27:46.932Z,20.30
2022-09-18T15:30:19.903Z,20.30
2022-09-18T15:32:55.008Z,20.40
2022-09-18T15:35:26.123Z,20.40
2022-09-18T15:38:03.053Z,20.40
2022-09-18T15:40:36.248Z,20.40
2022-09-18T15:43:27.000Z,20.40
2022-09-18T15:46:12.355Z,20.50
2022-09-18T15:48:39.255Z,20.50
2022-09-18T15:51:28.149Z,20.50
2022-09-18T15:54:13.327Z,20.50
2022-09-18T15:56:50.847Z,20.50
2022-09-18T15:59:37.016Z,20.50
2022-09-18T16:02:19.740Z,20.50
2022-09-18T16:04:46.734Z,20.50
2022-09-18T16:07:23.709Z,20.50
2022-09-18T16:09:51.112Z,20.50
2022-09-18T16:12:30.119Z,20.50
2022-09-18T16:15:00.017Z,20.40
2022-09-18T16:17:31.912Z,20.40
2022-09-18T16:20:20.345Z,20.40
2022-09-18T16:22:48.761Z,20.40
2022-09-18T16:25:26.678Z,20.30
2022-09-18T16:27:56.531Z,20.30
2022-09-18T16:30:25.082Z,20.30
2022-09-18T16:33:02.486Z,20.30
2022-09-18T16:35:29.334Z,20.30
2022-09-18T16:37:56.223Z,20.30
2022-09-18T16:40:27.682Z,20.20
2022-09-18T16:42:58.491Z,20.20
2022-09-18T16:45:27.042Z,20.20
2022-09-18T16:47:59.844Z,20.20
2022-09-18T16:50:27.561Z,20.20
2022-09-18T16:52:55.902Z,20.20
2022-09-18T16:55:25.562Z,20.20
2022-09-18T16:57:53.195Z,20.20
2022-09-18T17:00:20.188Z,20.10
2022-09-18T17:02:47.093Z,20.10
2022-09-18T17:05:14.047Z,20.20
2022-09-18T17:07:43.050Z,20.10
2022-09-18T17:10:14.437Z,20.10
2022-09-18T17:12:41.862Z,20.20
2022-09-18T17:15:09.488Z,20.20
2022-09-18T17:17:36.856Z,20.20
2022-09-18T17:20:05.195Z,20.20
2022-09-18T17:22:33.141Z,20.20
2022-09-18T17:25:00.652Z,20.20
2022-09-18T17:27:27.499Z,20.20
2022-09-18T17:29:54.345Z,20.20
2022-09-18T17:32:21.174Z,20.20
2022-09-18T17:34:47.990Z,20.20
2022-09-18T17:37:14.825Z,20.20
2022-09-18T17:39:42.148Z,20.20
2022-09-18T17:42:09.210Z,20.20
2022-09-18T17:44:37.089Z,20.20
2022-09-18T17:47:04.704Z,20.20
2022-09-18T17:49:32.739Z,20.20
2022-09-18T17:52:00.303Z,20.20
2022-09-18T17:54:28.080Z,20.20
2022-09-18T17:56:55.898Z,20.10
2022-09-18T17:59:23.008Z,20.20
2022-09-18T18:01:50.585Z,20.20
2022-09-18T18:04:17.937Z,20.10
2022-09-18T18:06:47.994Z,20.10
2022-09-18T18:09:15.527Z,20.10
2022-09-18T18:11:44.338Z,20.10
2022-09-18T18:14:11.340Z,20.10
2022-09-18T18:16:41.357Z,20.10
2022-09-18T18:19:12.249Z,20.10
2022-09-18T18:21:41.565Z,20.10
2022-09-18T18:24:12.167Z,20.10
2022-09-18T18:26:40.005Z,20.10
2022-09-18T18:29:10.944Z,20.10
2022-09-18T18:31:39.733Z,20.10
2022-09-18T18:34:11.072Z,20.10
2022-09-18T18:36:39.875Z,20.10
2022-09-18T18:39:11.905Z,20.10
2022-09-18T18:41:39.608Z,20.10
2022-09-18T18:44:07.174Z,20.10
2022-09-18T18:46:36.119Z,20.10
2022-09-18T18:49:09.390Z,20.10
2022-09-18T18:51:47.315Z,20.10
2022-09-18T18:54:16.898Z,20.00
2022-09-18T18:56:44.619Z,20.00
2022-09-18T18:59:15.315Z,20.00
2022-09-18T19:01:43.454Z,20.00
2022-09-18T19:04:12.954Z,20.00
2022-09-18T19:06:41.964Z,20.00
2022-09-18T19:09:10.705Z,20.00
2022-09-18T19:11:42.886Z,20.00
2022-09-18T19:14:14.320Z,19.90
2022-09-18T19:16:41.553Z,19.90
2022-09-18T19:19:13.029Z,19.90
2022-09-18T19:21:40.307Z,19.90
2022-09-18T19:24:08.856Z,19.90
2022-09-18T19:26:36.832Z,19.90
2022-09-18T19:29:07.746Z,19.90
2022-09-18T19:31:37.249Z,19.90
2022-09-18T19:34:04.923Z,19.80
2022-09-18T19:36:32.324Z,19.80
2022-09-18T19:39:04.140Z,19.80
2022-09-18T19:41:43.331Z,19.80
2022-09-18T19:44:34.442Z,19.70
2022-09-18T19:47:07.480Z,19.70
2022-09-18T19:49:38.170Z,19.70
2022-09-18T19:52:17.960Z,19.70
2022-09-18T19:54:46.182Z,19.60
2022-09-18T19:57:13.459Z,19.60
2022-09-18T19:59:40.360Z,19.60
2022-09-18T20:02:08.863Z,19.50
2022-09-18T20:04:40.344Z,19.50
2022-09-18T20:07:08.757Z,19.40
2022-09-18T20:09:36.321Z,19.30
2022-09-18T20:12:04.178Z,19.30
2022-09-18T20:14:31.454Z,19.10
2022-09-18T20:16:58.970Z,19.00
2022-09-18T20:19:26.132Z,18.90
2022-09-18T20:21:53.686Z,18.80
2022-09-18T20:24:20.790Z,18.70
2022-09-18T20:26:47.770Z,18.60
2022-09-18T20:29:16.178Z,18.50
2022-09-18T20:31:44.608Z,18.50
2022-09-18T20:34:11.919Z,18.40
2022-09-18T20:36:38.848Z,18.30
2022-09-18T20:39:05.858Z,18.30
2022-09-18T20:41:32.871Z,18.30
2022-09-18T20:44:03.201Z,18.30
2022-09-18T20:46:34.039Z,18.30
2022-09-18T20:49:03.448Z,18.30
2022-09-18T20:51:34.872Z,18.20
2022-09-18T20:54:03.945Z,18.20
2022-09-18T20:56:33.797Z,18.20
2022-09-18T20:59:04.834Z,18.30
2022-09-18T21:01:35.617Z,18.30
2022-09-18T21:04:02.835Z,18.30
2022-09-18T21:06:33.390Z,18.30
2022-09-18T21:09:06.194Z,18.30
2022-09-18T21:11:36.970Z,18.40
2022-09-18T21:14:05.464Z,18.40
2022-09-18T21:16:42.915Z,18.50
2022-09-18T21:19:16.124Z,18.50
2022-09-18T21:21:43.098Z,18.50
2022-09-18T21:24:09.977Z,18.60
2022-09-18T21:26:45.943Z,18.60
2022-09-18T21:29:14.150Z,18.60
2022-09-18T21:31:42.638Z,18.60
2022-09-18T21:34:12.300Z,18.60
2022-09-18T21:36:41.480Z,18.60
2022-09-18T21:39:09.770Z,18.60
2022-09-18T21:41:39.461Z,18.70
2022-09-18T21:44:09.956Z,18.70
2022-09-18T21:46:38.495Z,18.70
2022-09-18T21:49:07.962Z,18.70
2022-09-18T21:51:36.108Z,18.70
2022-09-18T21:54:05.569Z,18.70
2022-09-18T21:56:33.649Z,18.70
2022-09-18T21:59:00.975Z,18.70
2022-09-18T22:01:33.438Z,18.70
2022-09-18T22:04:02.217Z,18.60
2022-09-18T22:06:35.832Z,18.70
2022-09-18T22:09:16.788Z,18.60
2022-09-18T22:11:44.894Z,18.60
2022-09-18T22:14:19.128Z,18.60
2022-09-18T22:16:48.223Z,18.60
2022-09-18T22:19:16.787Z,18.60
2022-09-18T22:21:45.914Z,18.50
2022-09-18T22:24:15.899Z,18.50
2022-09-18T22:26:45.502Z,18.40
2022-09-18T22:29:19.111Z,18.40
2022-09-18T22:31:46.762Z,18.40
2022-09-18T22:34:19.364Z,18.40
2022-09-18T22:36:47.261Z,18.30
2022-09-18T22:39:15.789Z,18.30
2022-09-18T22:41:43.434Z,18.30
2022-09-18T22:44:11.051Z,18.30
2022-09-18T22:46:40.027Z,18.20
2022-09-18T22:49:08.771Z,18.20
2022-09-18T22:51:35.950Z,18.10
2022-09-18T22:54:07.694Z,18.10
2022-09-18T22:56:40.325Z,18.10
2022-09-18T22:59:07.580Z,18.10
2022-09-18T23:01:46.039Z,18.10
2022-09-18T23:04:13.452Z,18.10
2022-09-18T23:06:40.494Z,18.00
2022-09-18T23:09:07.598Z,18.00
2022-09-18T23:11:35.600Z,18.00
2022-09-18T23:14:07.319Z,17.90
2022-09-18T23:16:35.691Z,17.90
2022-09-18T23:19:05.182Z,17.90
2022-09-18T23:21:34.278Z,17.90
2022-09-18T23:24:05.941Z,17.80
2022-09-18T23:26:38.515Z,17.80
2022-09-18T23:29:08.301Z,17.80
2022-09-18T23:31:37.832Z,17.80
2022-09-18T23:34:07.657Z,17.70
2022-09-18T23:36:37.506Z,17.70
2022-09-18T23:39:07.386Z,17.70
2022-09-18T23:41:34.416Z,17.70
2022-09-18T23:44:02.608Z,17.60
2022-09-18T23:46:29.828Z,17.60
2022-09-18T23:48:57.482Z,17.60
2022-09-18T23:51:27.187Z,17.60
2022-09-18T23:53:55.879Z,17.60
2022-09-18T23:56:26.750Z,17.50
2022-09-18T23:58:55.235Z,17.50
